sensor_id;sensor_type;location;lat;lon;timestamp;P1;durP1;ratioP1;P2;durP2;ratioP2
55292;SDS011;41157;53.560;10.098;2023-05-17T00:00:31;15.70;;;4.47;;
55292;SDS011;41157;53.560;10.098;2023-05-17T00:02:58;18.60;;;4.27;;
55292;SDS011;41157;53.560;10.098;2023-05-17T00:05:25;13.57;;;4.30;;
55292;SDS011;41157;53.560;10.098;2023-05-17T00:07:52;15.50;;;4.23;;
55292;SDS011;41157;53.560;10.098;2023-05-17T00:10:19;21.53;;;4.10;;
55292;SDS011;41157;53.560;10.098;2023-05-17T00:12:46;15.50;;;4.30;;
55292;SDS011;41157;53.560;10.098;2023-05-17T00:15:13;20.47;;;4.73;;
55292;SDS011;41157;53.560;10.098;2023-05-17T00:17:41;14.40;;;4.20;;
55292;SDS011;41157;53.560;10.098;2023-05-17T00:20:09;21.07;;;4.90;;
55292;SDS011;41157;53.560;10.098;2023-05-17T00:22:36;17.07;;;4.47;;
55292;SDS011;41157;53.560;10.098;2023-05-17T00:25:05;14.77;;;3.37;;
55292;SDS011;41157;53.560;10.098;2023-05-17T00:27:37;18.23;;;5.03;;
55292;SDS011;41157;53.560;10.098;2023-05-17T00:30:05;22.70;;;5.30;;
55292;SDS011;41157;53.560;10.098;2023-05-17T00:32:32;18.47;;;4.60;;
55292;SDS011;41157;53.560;10.098;2023-05-17T00:35:01;18.07;;;4.07;;
55292;SDS011;41157;53.560;10.098;2023-05-17T00:37:28;21.50;;;4.50;;
55292;SDS011;41157;53.560;10.098;2023-05-17T00:39:55;15.87;;;4.20;;
55292;SDS011;41157;53.560;10.098;2023-05-17T00:42:22;22.63;;;4.43;;
55292;SDS011;41157;53.560;10.098;2023-05-17T00:44:49;19.97;;;4.60;;
55292;SDS011;41157;53.560;10.098;2023-05-17T00:47:16;15.33;;;3.83;;
55292;SDS011;41157;53.560;10.098;2023-05-17T00:49:43;16.37;;;4.10;;
55292;SDS011;41157;53.560;10.098;2023-05-17T00:52:12;21.37;;;4.27;;
55292;SDS011;41157;53.560;10.098;2023-05-17T00:54:39;20.47;;;4.13;;
55292;SDS011;41157;53.560;10.098;2023-05-17T00:57:06;18.57;;;4.70;;
55292;SDS011;41157;53.560;10.098;2023-05-17T00:59:34;19.00;;;4.47;;
55292;SDS011;41157;53.560;10.098;2023-05-17T01:02:02;21.90;;;4.87;;
55292;SDS011;41157;53.560;10.098;2023-05-17T01:04:29;16.40;;;4.10;;
55292;SDS011;41157;53.560;10.098;2023-05-17T01:06:56;19.30;;;4.60;;
55292;SDS011;41157;53.560;10.098;2023-05-17T01:09:25;21.47;;;3.93;;
55292;SDS011;41157;53.560;10.098;2023-05-17T01:11:53;16.87;;;3.57;;
55292;SDS011;41157;53.560;10.098;2023-05-17T01:14:26;18.60;;;3.73;;
55292;SDS011;41157;53.560;10.098;2023-05-17T01:16:58;19.53;;;4.63;;
55292;SDS011;41157;53.560;10.098;2023-05-17T01:19:33;20.07;;;4.33;;
55292;SDS011;41157;53.560;10.098;2023-05-17T01:22:09;16.57;;;4.07;;
55292;SDS011;41157;53.560;10.098;2023-05-17T01:24:45;13.80;;;4.30;;
55292;SDS011;41157;53.560;10.098;2023-05-17T01:27:16;18.10;;;4.40;;
55292;SDS011;41157;53.560;10.098;2023-05-17T01:29:44;22.00;;;4.20;;
55292;SDS011;41157;53.560;10.098;2023-05-17T01:32:12;14.23;;;4.13;;
55292;SDS011;41157;53.560;10.098;2023-05-17T01:34:39;16.70;;;3.80;;
55292;SDS011;41157;53.560;10.098;2023-05-17T01:37:07;16.70;;;4.60;;
55292;SDS011;41157;53.560;10.098;2023-05-17T01:39:34;16.73;;;4.23;;
55292;SDS011;41157;53.560;10.098;2023-05-17T01:42:03;21.10;;;4.50;;
55292;SDS011;41157;53.560;10.098;2023-05-17T01:44:36;21.50;;;3.30;;
55292;SDS011;41157;53.560;10.098;2023-05-17T01:47:04;20.63;;;4.10;;
55292;SDS011;41157;53.560;10.098;2023-05-17T01:49:36;16.77;;;3.73;;
55292;SDS011;41157;53.560;10.098;2023-05-17T01:52:04;18.77;;;4.03;;
55292;SDS011;41157;53.560;10.098;2023-05-17T01:54:35;16.77;;;3.93;;
55292;SDS011;41157;53.560;10.098;2023-05-17T01:57:03;23.23;;;4.17;;
55292;SDS011;41157;53.560;10.098;2023-05-17T01:59:32;22.87;;;3.50;;
55292;SDS011;41157;53.560;10.098;2023-05-17T02:02:01;20.70;;;3.73;;
55292;SDS011;41157;53.560;10.098;2023-05-17T02:04:32;16.10;;;3.67;;
55292;SDS011;41157;53.560;10.098;2023-05-17T02:06:59;14.30;;;3.67;;
55292;SDS011;41157;53.560;10.098;2023-05-17T02:09:28;17.33;;;3.90;;
55292;SDS011;41157;53.560;10.098;2023-05-17T02:11:55;12.20;;;3.23;;
55292;SDS011;41157;53.560;10.098;2023-05-17T02:14:22;13.07;;;3.70;;
55292;SDS011;41157;53.560;10.098;2023-05-17T02:16:49;10.23;;;3.20;;
55292;SDS011;41157;53.560;10.098;2023-05-17T02:19:17;10.57;;;2.93;;
55292;SDS011;41157;53.560;10.098;2023-05-17T02:21:44;15.63;;;3.23;;
55292;SDS011;41157;53.560;10.098;2023-05-17T02:24:12;18.50;;;3.30;;
55292;SDS011;41157;53.560;10.098;2023-05-17T02:26:39;24.73;;;3.17;;
55292;SDS011;41157;53.560;10.098;2023-05-17T02:29:07;22.50;;;2.83;;
55292;SDS011;41157;53.560;10.098;2023-05-17T02:31:34;16.37;;;3.07;;
55292;SDS011;41157;53.560;10.098;2023-05-17T02:34:01;14.20;;;3.17;;
55292;SDS011;41157;53.560;10.098;2023-05-17T02:36:30;12.13;;;3.30;;
55292;SDS011;41157;53.560;10.098;2023-05-17T02:38:57;17.13;;;3.00;;
55292;SDS011;41157;53.560;10.098;2023-05-17T02:41:24;15.50;;;2.87;;
55292;SDS011;41157;53.560;10.098;2023-05-17T02:43:51;16.90;;;3.27;;
55292;SDS011;41157;53.560;10.098;2023-05-17T02:46:18;14.73;;;3.10;;
55292;SDS011;41157;53.560;10.098;2023-05-17T02:48:46;17.17;;;2.83;;
55292;SDS011;41157;53.560;10.098;2023-05-17T02:51:13;16.63;;;2.73;;
55292;SDS011;41157;53.560;10.098;2023-05-17T02:53:42;12.73;;;3.30;;
55292;SDS011;41157;53.560;10.098;2023-05-17T02:56:09;12.10;;;2.70;;
55292;SDS011;41157;53.560;10.098;2023-05-17T02:58:36;10.63;;;2.70;;
55292;SDS011;41157;53.560;10.098;2023-05-17T03:01:03;17.40;;;3.00;;
55292;SDS011;41157;53.560;10.098;2023-05-17T03:03:30;14.47;;;3.23;;
55292;SDS011;41157;53.560;10.098;2023-05-17T03:05:58;10.33;;;3.00;;
55292;SDS011;41157;53.560;10.098;2023-05-17T03:08:26;15.07;;;2.93;;
55292;SDS011;41157;53.560;10.098;2023-05-17T03:10:54;11.43;;;2.80;;
55292;SDS011;41157;53.560;10.098;2023-05-17T03:13:22;15.33;;;2.73;;
55292;SDS011;41157;53.560;10.098;2023-05-17T03:15:49;18.50;;;2.43;;
55292;SDS011;41157;53.560;10.098;2023-05-17T03:18:16;13.60;;;2.60;;
55292;SDS011;41157;53.560;10.098;2023-05-17T03:20:43;14.00;;;2.83;;
55292;SDS011;41157;53.560;10.098;2023-05-17T03:23:11;15.73;;;2.47;;
55292;SDS011;41157;53.560;10.098;2023-05-17T03:25:38;17.03;;;3.17;;
55292;SDS011;41157;53.560;10.098;2023-05-17T03:28:06;14.80;;;2.77;;
55292;SDS011;41157;53.560;10.098;2023-05-17T03:30:33;16.03;;;3.07;;
55292;SDS011;41157;53.560;10.098;2023-05-17T03:33:00;14.80;;;2.67;;
55292;SDS011;41157;53.560;10.098;2023-05-17T03:35:27;15.40;;;3.00;;
55292;SDS011;41157;53.560;10.098;2023-05-17T03:37:54;7.00;;;2.23;;
55292;SDS011;41157;53.560;10.098;2023-05-17T03:40:21;8.27;;;2.30;;
55292;SDS011;41157;53.560;10.098;2023-05-17T03:42:48;15.77;;;2.87;;
55292;SDS011;41157;53.560;10.098;2023-05-17T03:45:17;13.63;;;2.67;;
55292;SDS011;41157;53.560;10.098;2023-05-17T03:47:44;12.27;;;2.73;;
55292;SDS011;41157;53.560;10.098;2023-05-17T03:50:11;12.37;;;2.83;;
55292;SDS011;41157;53.560;10.098;2023-05-17T03:52:38;12.73;;;2.53;;
55292;SDS011;41157;53.560;10.098;2023-05-17T03:55:06;12.73;;;2.90;;
55292;SDS011;41157;53.560;10.098;2023-05-17T03:57:33;11.63;;;2.67;;
55292;SDS011;41157;53.560;10.098;2023-05-17T04:00:00;15.90;;;2.90;;
55292;SDS011;41157;53.560;10.098;2023-05-17T04:02:31;17.37;;;2.77;;
55292;SDS011;41157;53.560;10.098;2023-05-17T04:04:58;20.57;;;5.80;;
55292;SDS011;41157;53.560;10.098;2023-05-17T04:07:26;15.30;;;3.93;;
55292;SDS011;41157;53.560;10.098;2023-05-17T04:09:53;13.23;;;2.87;;
55292;SDS011;41157;53.560;10.098;2023-05-17T04:12:22;11.60;;;2.87;;
55292;SDS011;41157;53.560;10.098;2023-05-17T04:14:49;16.13;;;2.90;;
55292;SDS011;41157;53.560;10.098;2023-05-17T04:17:16;14.37;;;2.80;;
55292;SDS011;41157;53.560;10.098;2023-05-17T04:19:45;15.70;;;3.20;;
55292;SDS011;41157;53.560;10.098;2023-05-17T04:22:12;17.60;;;3.03;;
55292;SDS011;41157;53.560;10.098;2023-05-17T04:24:39;14.93;;;3.43;;
55292;SDS011;41157;53.560;10.098;2023-05-17T04:27:06;19.63;;;2.90;;
55292;SDS011;41157;53.560;10.098;2023-05-17T04:29:33;15.37;;;3.03;;
55292;SDS011;41157;53.560;10.098;2023-05-17T04:32:00;13.27;;;3.17;;
55292;SDS011;41157;53.560;10.098;2023-05-17T04:34:28;8.90;;;2.47;;
55292;SDS011;41157;53.560;10.098;2023-05-17T04:36:57;13.57;;;2.83;;
55292;SDS011;41157;53.560;10.098;2023-05-17T04:39:24;14.40;;;3.43;;
55292;SDS011;41157;53.560;10.098;2023-05-17T04:41:51;20.03;;;2.90;;
55292;SDS011;41157;53.560;10.098;2023-05-17T04:44:18;10.63;;;3.10;;
55292;SDS011;41157;53.560;10.098;2023-05-17T04:46:45;12.17;;;3.13;;
55292;SDS011;41157;53.560;10.098;2023-05-17T04:49:13;16.40;;;2.40;;
55292;SDS011;41157;53.560;10.098;2023-05-17T04:51:40;16.70;;;3.10;;
55292;SDS011;41157;53.560;10.098;2023-05-17T04:54:08;17.77;;;3.33;;
55292;SDS011;41157;53.560;10.098;2023-05-17T04:56:35;14.03;;;2.70;;
55292;SDS011;41157;53.560;10.098;2023-05-17T04:59:02;13.40;;;3.03;;
55292;SDS011;41157;53.560;10.098;2023-05-17T05:01:29;12.80;;;3.07;;
55292;SDS011;41157;53.560;10.098;2023-05-17T05:03:57;23.50;;;3.20;;
55292;SDS011;41157;53.560;10.098;2023-05-17T05:06:24;14.90;;;3.47;;
55292;SDS011;41157;53.560;10.098;2023-05-17T05:08:51;14.60;;;3.00;;
55292;SDS011;41157;53.560;10.098;2023-05-17T05:11:19;18.90;;;3.10;;
55292;SDS011;41157;53.560;10.098;2023-05-17T05:13:46;18.07;;;3.43;;
55292;SDS011;41157;53.560;10.098;2023-05-17T05:16:13;17.87;;;3.47;;
55292;SDS011;41157;53.560;10.098;2023-05-17T05:18:40;11.60;;;3.27;;
55292;SDS011;41157;53.560;10.098;2023-05-17T05:21:07;15.03;;;3.23;;
55292;SDS011;41157;53.560;10.098;2023-05-17T05:23:34;13.47;;;2.77;;
55292;SDS011;41157;53.560;10.098;2023-05-17T05:26:01;13.33;;;3.10;;
55292;SDS011;41157;53.560;10.098;2023-05-17T05:28:30;16.53;;;3.93;;
55292;SDS011;41157;53.560;10.098;2023-05-17T05:30:57;15.13;;;3.57;;
55292;SDS011;41157;53.560;10.098;2023-05-17T05:33:24;14.53;;;3.63;;
55292;SDS011;41157;53.560;10.098;2023-05-17T05:35:51;16.97;;;3.37;;
55292;SDS011;41157;53.560;10.098;2023-05-17T05:38:18;19.07;;;3.60;;
55292;SDS011;41157;53.560;10.098;2023-05-17T05:40:46;20.03;;;3.93;;
55292;SDS011;41157;53.560;10.098;2023-05-17T05:43:13;17.83;;;3.40;;
55292;SDS011;41157;53.560;10.098;2023-05-17T05:45:41;14.60;;;3.27;;
55292;SDS011;41157;53.560;10.098;2023-05-17T05:48:10;13.13;;;3.10;;
55292;SDS011;41157;53.560;10.098;2023-05-17T05:50:38;14.30;;;3.30;;
55292;SDS011;41157;53.560;10.098;2023-05-17T05:53:06;12.43;;;3.07;;
55292;SDS011;41157;53.560;10.098;2023-05-17T05:55:33;12.43;;;3.00;;
55292;SDS011;41157;53.560;10.098;2023-05-17T05:58:00;14.77;;;2.83;;
55292;SDS011;41157;53.560;10.098;2023-05-17T06:00:27;26.20;;;3.90;;
55292;SDS011;41157;53.560;10.098;2023-05-17T06:02:56;13.43;;;3.57;;
55292;SDS011;41157;53.560;10.098;2023-05-17T06:05:23;13.40;;;3.07;;
55292;SDS011;41157;53.560;10.098;2023-05-17T06:07:50;16.60;;;3.10;;
55292;SDS011;41157;53.560;10.098;2023-05-17T06:10:17;20.47;;;3.57;;
55292;SDS011;41157;53.560;10.098;2023-05-17T06:12:44;10.97;;;2.93;;
55292;SDS011;41157;53.560;10.098;2023-05-17T06:15:11;11.50;;;3.10;;
55292;SDS011;41157;53.560;10.098;2023-05-17T06:17:38;11.53;;;3.23;;
55292;SDS011;41157;53.560;10.098;2023-05-17T06:20:07;8.83;;;2.60;;
55292;SDS011;41157;53.560;10.098;2023-05-17T06:22:34;16.47;;;2.67;;
55292;SDS011;41157;53.560;10.098;2023-05-17T06:25:02;16.00;;;2.97;;
55292;SDS011;41157;53.560;10.098;2023-05-17T06:27:30;10.30;;;2.70;;
55292;SDS011;41157;53.560;10.098;2023-05-17T06:29:57;16.57;;;3.53;;
55292;SDS011;41157;53.560;10.098;2023-05-17T06:32:24;9.20;;;2.63;;
55292;SDS011;41157;53.560;10.098;2023-05-17T06:34:52;17.77;;;3.13;;
55292;SDS011;41157;53.560;10.098;2023-05-17T06:37:20;11.00;;;2.97;;
55292;SDS011;41157;53.560;10.098;2023-05-17T06:39:49;13.83;;;3.10;;
55292;SDS011;41157;53.560;10.098;2023-05-17T06:42:16;11.40;;;2.77;;
55292;SDS011;41157;53.560;10.098;2023-05-17T06:44:44;13.03;;;3.07;;
55292;SDS011;41157;53.560;10.098;2023-05-17T06:47:11;12.53;;;2.70;;
55292;SDS011;41157;53.560;10.098;2023-05-17T06:49:38;12.37;;;2.50;;
55292;SDS011;41157;53.560;10.098;2023-05-17T06:52:05;16.77;;;3.00;;
55292;SDS011;41157;53.560;10.098;2023-05-17T06:54:33;12.67;;;2.70;;
55292;SDS011;41157;53.560;10.098;2023-05-17T06:57:00;12.37;;;2.43;;
55292;SDS011;41157;53.560;10.098;2023-05-17T06:59:27;7.30;;;2.43;;
55292;SDS011;41157;53.560;10.098;2023-05-17T07:01:55;11.43;;;2.53;;
55292;SDS011;41157;53.560;10.098;2023-05-17T07:04:24;14.00;;;2.73;;
55292;SDS011;41157;53.560;10.098;2023-05-17T07:06:51;12.67;;;2.80;;
55292;SDS011;41157;53.560;10.098;2023-05-17T07:09:18;12.83;;;2.80;;
55292;SDS011;41157;53.560;10.098;2023-05-17T07:11:47;8.90;;;2.70;;
55292;SDS011;41157;53.560;10.098;2023-05-17T07:14:14;8.43;;;2.47;;
55292;SDS011;41157;53.560;10.098;2023-05-17T07:16:41;10.40;;;2.20;;
55292;SDS011;41157;53.560;10.098;2023-05-17T07:19:08;8.27;;;2.50;;
55292;SDS011;41157;53.560;10.098;2023-05-17T07:21:35;9.33;;;2.50;;
55292;SDS011;41157;53.560;10.098;2023-05-17T07:24:02;12.70;;;2.63;;
55292;SDS011;41157;53.560;10.098;2023-05-17T07:26:29;11.03;;;2.60;;
55292;SDS011;41157;53.560;10.098;2023-05-17T07:29:00;18.13;;;2.50;;
55292;SDS011;41157;53.560;10.098;2023-05-17T07:31:28;9.97;;;3.07;;
55292;SDS011;41157;53.560;10.098;2023-05-17T07:33:58;12.30;;;2.70;;
55292;SDS011;41157;53.560;10.098;2023-05-17T07:36:25;15.40;;;3.03;;
55292;SDS011;41157;53.560;10.098;2023-05-17T07:38:54;8.67;;;2.60;;
55292;SDS011;41157;53.560;10.098;2023-05-17T07:41:21;10.10;;;2.80;;
55292;SDS011;41157;53.560;10.098;2023-05-17T07:43:49;12.63;;;2.37;;
55292;SDS011;41157;53.560;10.098;2023-05-17T07:46:18;10.90;;;2.60;;
55292;SDS011;41157;53.560;10.098;2023-05-17T07:48:46;10.40;;;2.47;;
55292;SDS011;41157;53.560;10.098;2023-05-17T07:51:13;18.43;;;2.67;;
55292;SDS011;41157;53.560;10.098;2023-05-17T07:53:40;10.57;;;2.63;;
55292;SDS011;41157;53.560;10.098;2023-05-17T07:56:07;11.07;;;2.20;;
55292;SDS011;41157;53.560;10.098;2023-05-17T07:58:34;6.23;;;2.00;;
55292;SDS011;41157;53.560;10.098;2023-05-17T08:01:01;12.63;;;2.73;;
55292;SDS011;41157;53.560;10.098;2023-05-17T08:03:30;14.27;;;2.77;;
55292;SDS011;41157;53.560;10.098;2023-05-17T08:05:57;10.03;;;2.70;;
55292;SDS011;41157;53.560;10.098;2023-05-17T08:08:24;13.17;;;2.70;;
55292;SDS011;41157;53.560;10.098;2023-05-17T08:10:51;8.97;;;2.10;;
55292;SDS011;41157;53.560;10.098;2023-05-17T08:13:18;9.13;;;2.70;;
55292;SDS011;41157;53.560;10.098;2023-05-17T08:15:47;11.70;;;2.63;;
55292;SDS011;41157;53.560;10.098;2023-05-17T08:18:14;8.97;;;2.40;;
55292;SDS011;41157;53.560;10.098;2023-05-17T08:20:42;7.83;;;2.43;;
55292;SDS011;41157;53.560;10.098;2023-05-17T08:23:10;10.10;;;2.40;;
55292;SDS011;41157;53.560;10.098;2023-05-17T08:25:37;8.07;;;2.27;;
55292;SDS011;41157;53.560;10.098;2023-05-17T08:28:04;11.93;;;3.00;;
55292;SDS011;41157;53.560;10.098;2023-05-17T08:30:31;8.53;;;2.60;;
55292;SDS011;41157;53.560;10.098;2023-05-17T08:32:58;9.27;;;2.83;;
55292;SDS011;41157;53.560;10.098;2023-05-17T08:35:25;10.00;;;2.73;;
55292;SDS011;41157;53.560;10.098;2023-05-17T08:37:54;8.03;;;2.40;;
55292;SDS011;41157;53.560;10.098;2023-05-17T08:40:21;7.73;;;2.70;;
55292;SDS011;41157;53.560;10.098;2023-05-17T08:42:48;10.43;;;2.73;;
55292;SDS011;41157;53.560;10.098;2023-05-17T08:45:16;9.63;;;2.80;;
55292;SDS011;41157;53.560;10.098;2023-05-17T08:47:43;11.40;;;2.83;;
55292;SDS011;41157;53.560;10.098;2023-05-17T08:50:11;13.83;;;3.10;;
55292;SDS011;41157;53.560;10.098;2023-05-17T08:52:38;10.00;;;2.50;;
55292;SDS011;41157;53.560;10.098;2023-05-17T08:55:07;6.83;;;2.70;;
55292;SDS011;41157;53.560;10.098;2023-05-17T08:57:35;11.70;;;3.27;;
55292;SDS011;41157;53.560;10.098;2023-05-17T09:00:03;10.37;;;2.67;;
55292;SDS011;41157;53.560;10.098;2023-05-17T09:02:36;9.57;;;2.70;;
55292;SDS011;41157;53.560;10.098;2023-05-17T09:05:04;16.07;;;3.07;;
55292;SDS011;41157;53.560;10.098;2023-05-17T09:07:31;9.93;;;2.80;;
55292;SDS011;41157;53.560;10.098;2023-05-17T09:09:58;10.17;;;2.50;;
55292;SDS011;41157;53.560;10.098;2023-05-17T09:12:30;10.13;;;2.47;;
55292;SDS011;41157;53.560;10.098;2023-05-17T09:15:12;7.40;;;2.53;;
55292;SDS011;41157;53.560;10.098;2023-05-17T09:17:40;7.17;;;2.63;;
55292;SDS011;41157;53.560;10.098;2023-05-17T09:20:07;6.33;;;2.43;;
55292;SDS011;41157;53.560;10.098;2023-05-17T09:22:34;13.73;;;3.00;;
55292;SDS011;41157;53.560;10.098;2023-05-17T09:25:02;8.80;;;2.57;;
55292;SDS011;41157;53.560;10.098;2023-05-17T09:27:31;7.97;;;2.53;;
55292;SDS011;41157;53.560;10.098;2023-05-17T09:29:58;9.50;;;3.03;;
55292;SDS011;41157;53.560;10.098;2023-05-17T09:32:25;6.33;;;2.30;;
55292;SDS011;41157;53.560;10.098;2023-05-17T09:34:52;12.40;;;3.00;;
55292;SDS011;41157;53.560;10.098;2023-05-17T09:37:22;9.73;;;3.33;;
55292;SDS011;41157;53.560;10.098;2023-05-17T09:39:50;15.80;;;3.00;;
55292;SDS011;41157;53.560;10.098;2023-05-17T09:42:17;12.63;;;2.67;;
55292;SDS011;41157;53.560;10.098;2023-05-17T09:44:47;12.90;;;2.87;;
55292;SDS011;41157;53.560;10.098;2023-05-17T09:47:24;11.27;;;3.10;;
55292;SDS011;41157;53.560;10.098;2023-05-17T09:49:51;13.73;;;3.10;;
55292;SDS011;41157;53.560;10.098;2023-05-17T09:52:19;13.53;;;2.73;;
55292;SDS011;41157;53.560;10.098;2023-05-17T09:54:55;15.27;;;2.80;;
55292;SDS011;41157;53.560;10.098;2023-05-17T09:57:23;13.90;;;3.10;;
55292;SDS011;41157;53.560;10.098;2023-05-17T09:59:54;11.80;;;3.03;;
55292;SDS011;41157;53.560;10.098;2023-05-17T10:02:23;11.50;;;3.03;;
55292;SDS011;41157;53.560;10.098;2023-05-17T10:04:54;10.23;;;2.73;;
55292;SDS011;41157;53.560;10.098;2023-05-17T10:07:22;6.45;;;2.83;;
55292;SDS011;41157;53.560;10.098;2023-05-17T10:09:50;6.83;;;2.90;;
55292;SDS011;41157;53.560;10.098;2023-05-17T10:12:17;9.35;;;3.08;;
55292;SDS011;41157;53.560;10.098;2023-05-17T10:14:47;9.40;;;2.78;;
55292;SDS011;41157;53.560;10.098;2023-05-17T10:17:15;9.02;;;2.92;;
55292;SDS011;41157;53.560;10.098;2023-05-17T10:19:43;7.43;;;2.20;;
55292;SDS011;41157;53.560;10.098;2023-05-17T10:22:11;7.25;;;2.47;;
55292;SDS011;41157;53.560;10.098;2023-05-17T10:24:38;13.52;;;2.70;;
55292;SDS011;41157;53.560;10.098;2023-05-17T10:27:05;9.68;;;2.80;;
55292;SDS011;41157;53.560;10.098;2023-05-17T10:29:32;8.98;;;2.63;;
55292;SDS011;41157;53.560;10.098;2023-05-17T10:32:02;7.90;;;2.67;;
55292;SDS011;41157;53.560;10.098;2023-05-17T10:34:36;12.25;;;2.38;;
55292;SDS011;41157;53.560;10.098;2023-05-17T10:37:03;6.80;;;2.42;;
55292;SDS011;41157;53.560;10.098;2023-05-17T10:39:32;9.75;;;2.65;;
55292;SDS011;41157;53.560;10.098;2023-05-17T10:42:03;7.38;;;2.58;;
55292;SDS011;41157;53.560;10.098;2023-05-17T10:44:31;7.40;;;2.67;;
55292;SDS011;41157;53.560;10.098;2023-05-17T10:46:59;7.55;;;2.10;;
55292;SDS011;41157;53.560;10.098;2023-05-17T10:49:28;5.82;;;1.88;;
55292;SDS011;41157;53.560;10.098;2023-05-17T10:51:57;5.32;;;2.20;;
55292;SDS011;41157;53.560;10.098;2023-05-17T10:54:34;4.18;;;2.08;;
55292;SDS011;41157;53.560;10.098;2023-05-17T10:57:04;6.35;;;1.75;;
55292;SDS011;41157;53.560;10.098;2023-05-17T10:59:31;7.25;;;2.20;;
55292;SDS011;41157;53.560;10.098;2023-05-17T11:01:59;5.68;;;2.00;;
55292;SDS011;41157;53.560;10.098;2023-05-17T11:04:31;7.63;;;2.00;;
55292;SDS011;41157;53.560;10.098;2023-05-17T11:09:48;4.93;;;1.70;;
55292;SDS011;41157;53.560;10.098;2023-05-17T11:12:15;3.33;;;1.80;;
55292;SDS011;41157;53.560;10.098;2023-05-17T11:14:46;8.82;;;2.20;;
55292;SDS011;41157;53.560;10.098;2023-05-17T11:17:13;8.40;;;2.42;;
55292;SDS011;41157;53.560;10.098;2023-05-17T11:19:48;8.93;;;2.63;;
55292;SDS011;41157;53.560;10.098;2023-05-17T11:22:16;11.85;;;2.20;;
55292;SDS011;41157;53.560;10.098;2023-05-17T11:24:43;5.38;;;2.13;;
55292;SDS011;41157;53.560;10.098;2023-05-17T11:27:12;4.07;;;1.80;;
55292;SDS011;41157;53.560;10.098;2023-05-17T11:29:39;3.20;;;1.60;;
55292;SDS011;41157;53.560;10.098;2023-05-17T11:32:08;6.38;;;2.08;;
55292;SDS011;41157;53.560;10.098;2023-05-17T11:34:35;3.55;;;1.80;;
55292;SDS011;41157;53.560;10.098;2023-05-17T11:37:03;4.80;;;1.80;;
55292;SDS011;41157;53.560;10.098;2023-05-17T11:39:36;6.63;;;1.60;;
55292;SDS011;41157;53.560;10.098;2023-05-17T11:42:03;3.65;;;1.65;;
55292;SDS011;41157;53.560;10.098;2023-05-17T11:44:32;4.50;;;2.10;;
55292;SDS011;41157;53.560;10.098;2023-05-17T11:47:00;6.05;;;1.92;;
55292;SDS011;41157;53.560;10.098;2023-05-17T11:49:29;4.00;;;1.73;;
55292;SDS011;41157;53.560;10.098;2023-05-17T11:51:56;8.85;;;2.72;;
55292;SDS011;41157;53.560;10.098;2023-05-17T11:54:26;6.82;;;2.08;;
55292;SDS011;41157;53.560;10.098;2023-05-17T11:56:54;5.95;;;1.90;;
55292;SDS011;41157;53.560;10.098;2023-05-17T11:59:21;5.82;;;2.45;;
55292;SDS011;41157;53.560;10.098;2023-05-17T12:01:50;8.77;;;2.20;;
55292;SDS011;41157;53.560;10.098;2023-05-17T12:04:21;5.82;;;2.08;;
55292;SDS011;41157;53.560;10.098;2023-05-17T12:06:49;6.05;;;2.05;;
55292;SDS011;41157;53.560;10.098;2023-05-17T12:09:16;8.02;;;1.98;;
55292;SDS011;41157;53.560;10.098;2023-05-17T12:11:43;6.88;;;1.83;;
55292;SDS011;41157;53.560;10.098;2023-05-17T12:14:13;8.20;;;1.85;;
55292;SDS011;41157;53.560;10.098;2023-05-17T12:16:41;4.80;;;1.73;;
55292;SDS011;41157;53.560;10.098;2023-05-17T12:19:16;6.53;;;1.92;;
55292;SDS011;41157;53.560;10.098;2023-05-17T12:21:44;5.95;;;1.90;;
55292;SDS011;41157;53.560;10.098;2023-05-17T12:24:11;4.50;;;1.85;;
55292;SDS011;41157;53.560;10.098;2023-05-17T12:26:41;5.63;;;2.05;;
55292;SDS011;41157;53.560;10.098;2023-05-17T12:29:09;7.75;;;1.98;;
55292;SDS011;41157;53.560;10.098;2023-05-17T12:31:36;6.63;;;2.40;;
55292;SDS011;41157;53.560;10.098;2023-05-17T12:34:05;10.65;;;2.28;;
55292;SDS011;41157;53.560;10.098;2023-05-17T12:36:34;4.35;;;2.28;;
55292;SDS011;41157;53.560;10.098;2023-05-17T12:39:02;8.50;;;2.60;;
55292;SDS011;41157;53.560;10.098;2023-05-17T12:41:33;8.27;;;2.50;;
55292;SDS011;41157;53.560;10.098;2023-05-17T12:44:00;7.97;;;2.70;;
55292;SDS011;41157;53.560;10.098;2023-05-17T12:46:28;9.07;;;2.17;;
55292;SDS011;41157;53.560;10.098;2023-05-17T12:48:59;8.60;;;2.60;;
55292;SDS011;41157;53.560;10.098;2023-05-17T12:51:27;9.80;;;2.72;;
55292;SDS011;41157;53.560;10.098;2023-05-17T12:53:55;11.75;;;2.80;;
55292;SDS011;41157;53.560;10.098;2023-05-17T12:56:25;5.22;;;2.10;;
55292;SDS011;41157;53.560;10.098;2023-05-17T12:59:03;10.57;;;2.50;;
55292;SDS011;41157;53.560;10.098;2023-05-17T13:01:33;6.60;;;2.45;;
55292;SDS011;41157;53.560;10.098;2023-05-17T13:04:00;8.98;;;2.20;;
55292;SDS011;41157;53.560;10.098;2023-05-17T13:06:28;9.95;;;2.22;;
55292;SDS011;41157;53.560;10.098;2023-05-17T13:08:59;12.32;;;2.30;;
55292;SDS011;41157;53.560;10.098;2023-05-17T13:11:26;5.22;;;1.95;;
55292;SDS011;41157;53.560;10.098;2023-05-17T13:13:53;6.07;;;2.00;;
55292;SDS011;41157;53.560;10.098;2023-05-17T13:16:26;6.97;;;2.25;;
55292;SDS011;41157;53.560;10.098;2023-05-17T13:18:56;4.40;;;1.98;;
55292;SDS011;41157;53.560;10.098;2023-05-17T13:21:23;5.30;;;1.80;;
55292;SDS011;41157;53.560;10.098;2023-05-17T13:23:51;4.93;;;1.90;;
55292;SDS011;41157;53.560;10.098;2023-05-17T13:26:19;9.85;;;2.30;;
55292;SDS011;41157;53.560;10.098;2023-05-17T13:28:46;9.02;;;2.08;;
55292;SDS011;41157;53.560;10.098;2023-05-17T13:31:15;5.10;;;1.98;;
55292;SDS011;41157;53.560;10.098;2023-05-17T13:33:42;6.78;;;2.80;;
55292;SDS011;41157;53.560;10.098;2023-05-17T13:36:09;7.68;;;1.85;;
55292;SDS011;41157;53.560;10.098;2023-05-17T13:38:36;4.32;;;1.83;;
55292;SDS011;41157;53.560;10.098;2023-05-17T13:41:03;7.65;;;2.13;;
55292;SDS011;41157;53.560;10.098;2023-05-17T13:43:32;7.45;;;2.28;;
55292;SDS011;41157;53.560;10.098;2023-05-17T13:46:00;7.28;;;2.00;;
55292;SDS011;41157;53.560;10.098;2023-05-17T13:48:27;4.55;;;1.60;;
55292;SDS011;41157;53.560;10.098;2023-05-17T13:50:55;6.40;;;2.33;;
55292;SDS011;41157;53.560;10.098;2023-05-17T13:53:22;5.60;;;2.38;;
55292;SDS011;41157;53.560;10.098;2023-05-17T13:55:49;8.98;;;2.10;;
55292;SDS011;41157;53.560;10.098;2023-05-17T13:58:16;5.30;;;2.03;;
55292;SDS011;41157;53.560;10.098;2023-05-17T14:00:44;9.93;;;2.22;;
55292;SDS011;41157;53.560;10.098;2023-05-17T14:03:12;11.70;;;2.53;;
55292;SDS011;41157;53.560;10.098;2023-05-17T14:05:39;10.18;;;2.60;;
55292;SDS011;41157;53.560;10.098;2023-05-17T14:08:06;6.50;;;2.70;;
55292;SDS011;41157;53.560;10.098;2023-05-17T14:10:33;7.40;;;2.47;;
55292;SDS011;41157;53.560;10.098;2023-05-17T14:13:01;11.23;;;2.30;;
55292;SDS011;41157;53.560;10.098;2023-05-17T14:15:28;8.68;;;2.40;;
55292;SDS011;41157;53.560;10.098;2023-05-17T14:17:57;8.93;;;2.50;;
55292;SDS011;41157;53.560;10.098;2023-05-17T14:20:24;11.55;;;2.58;;
55292;SDS011;41157;53.560;10.098;2023-05-17T14:22:52;5.73;;;2.20;;
55292;SDS011;41157;53.560;10.098;2023-05-17T14:25:19;8.63;;;2.58;;
55292;SDS011;41157;53.560;10.098;2023-05-17T14:27:46;9.02;;;2.50;;
55292;SDS011;41157;53.560;10.098;2023-05-17T14:30:13;10.30;;;2.40;;
55292;SDS011;41157;53.560;10.098;2023-05-17T14:32:40;9.90;;;2.70;;